Time;durP1;ratioP1;P1;durP2;ratioP2;P2;SDS_P1;SDS_P2;PMS_P1;PMS_P2;Temp;Humidity;BMP_temperature;BMP_pressure;BME280_temperature;BME280_humidity;BME280_pressure;Samples;Min_cycle;Max_cycle;Signal;HPM_P1;HPM_P2
2022/10/08 00:02:59;;;;;;;16.00;6.80;;;;;;;10.00;100.00;96779.53;10414023;28;20555;-73
2022/10/08 00:08:00;;;;;;;12.40;6.57;;;;;;;10.09;100.00;96780.41;10413854;28;20213;-73
2022/10/08 00:13:01;;;;;;;27.03;6.87;;;;;;;10.15;100.00;96775.41;10412907;28;20220;-73
2022/10/08 00:18:02;;;;;;;14.53;5.80;;;;;;;10.26;100.00;96773.47;10413613;28;20284;-73
2022/10/08 00:23:02;;;;;;;19.13;6.60;;;;;;;10.22;100.00;96777.41;10412571;28;20542;-73
2022/10/08 00:28:04;;;;;;;18.83;6.30;;;;;;;10.29;100.00;96771.41;10413104;28;20596;-74
2022/10/08 00:33:05;;;;;;;10.00;5.20;;;;;;;10.23;100.00;96753.69;10394444;28;20192;-73
2022/10/08 00:38:06;;;;;;;11.50;4.83;;;;;;;10.31;100.00;96761.59;10412551;28;20244;-73
2022/10/08 00:43:13;;;;;;;13.70;5.67;;;;;;;10.32;100.00;96762.41;10393995;28;20595;-73
2022/10/08 00:48:23;;;;;;;17.70;5.57;;;;;;;10.37;100.00;96756.72;10412265;28;20228;-73
2022/10/08 00:53:23;;;;;;;15.83;5.67;;;;;;;10.52;100.00;96748.16;10394489;28;20184;-73
2022/10/08 00:58:25;;;;;;;8.40;5.17;;;;;;;10.64;100.00;96743.50;10411769;28;20660;-73
2022/10/08 01:03:25;;;;;;;14.17;5.33;;;;;;;10.73;100.00;96735.66;10410146;28;20270;-73
2022/10/08 01:08:32;;;;;;;11.27;5.47;;;;;;;10.69;100.00;96727.31;10411354;28;20280;-73
2022/10/08 01:13:40;;;;;;;12.93;6.27;;;;;;;10.71;100.00;96717.47;10410775;28;20193;-73
2022/10/08 01:19:12;;;;;;;10.50;5.50;;;;;;;10.68;100.00;96715.97;10393377;28;20285;-73
2022/10/08 01:29:55;;;;;;;16.17;6.50;;;;;;;10.65;100.00;96711.06;10395521;28;20239;-73
2022/10/08 01:35:03;;;;;;;16.20;5.50;;;;;;;10.77;100.00;96703.75;10392548;28;20205;-73
2022/10/08 01:40:08;;;;;;;15.43;6.10;;;;;;;10.86;100.00;96699.38;10392586;28;20184;-73
2022/10/08 01:45:13;;;;;;;11.47;6.77;;;;;;;10.82;100.00;96698.84;10392243;28;20784;-73
2022/10/08 01:50:33;;;;;;;9.37;5.37;;;;;;;10.96;100.00;96692.16;10391686;28;20199;-73
2022/10/08 01:55:37;;;;;;;14.53;5.77;;;;;;;10.96;100.00;96681.69;10391990;28;20640;-73
2022/10/08 02:00:41;;;;;;;13.07;5.90;;;;;;;11.01;100.00;96692.53;10391418;28;20548;-74
2022/10/08 02:05:45;;;;;;;15.02;5.32;;;;;;;11.17;100.00;96677.81;10392064;28;20221;-73
2022/10/08 02:10:45;;;;;;;12.27;5.45;;;;;;;11.28;100.00;96679.31;10408575;28;20736;-73
2022/10/08 02:15:59;;;;;;;12.90;5.80;;;;;;;11.28;100.00;96671.44;10409493;28;20282;-73
2022/10/08 02:21:03;;;;;;;14.02;5.65;;;;;;;11.43;100.00;96660.13;10396172;28;20223;-73
2022/10/08 02:26:08;;;;;;;14.20;5.30;;;;;;;11.66;100.00;96662.13;10449718;28;20220;-73
2022/10/08 02:31:10;;;;;;;7.85;5.22;;;;;;;11.68;100.00;96665.38;10431125;28;20323;-73
2022/10/08 02:36:12;;;;;;;12.57;5.22;;;;;;;11.74;100.00;96656.84;10431750;28;20215;-73
2022/10/08 02:41:13;;;;;;;15.27;5.25;;;;;;;11.90;100.00;96656.03;10449179;28;20200;-73
2022/10/08 02:46:21;;;;;;;19.15;5.22;;;;;;;12.12;100.00;96649.28;10430825;28;20691;-73
2022/10/08 02:51:22;;;;;;;10.70;5.60;;;;;;;12.08;100.00;96655.03;10431642;28;20202;-73
2022/10/08 02:56:27;;;;;;;11.02;5.38;;;;;;;12.03;100.00;96657.34;10448915;28;20203;-73
2022/10/08 03:01:34;;;;;;;8.45;5.15;;;;;;;11.91;100.00;96648.97;10430415;28;20188;-73
2022/10/08 03:06:35;;;;;;;11.93;5.43;;;;;;;11.93;100.00;96650.47;10398858;28;20646;-74
2022/10/08 03:11:35;;;;;;;13.65;5.28;;;;;;;12.05;100.00;96656.22;10401105;28;20204;-73
2022/10/08 03:16:39;;;;;;;13.85;5.88;;;;;;;12.05;100.00;96645.72;10400826;28;20564;-74
2022/10/08 03:21:41;;;;;;;8.13;5.10;;;;;;;12.37;100.00;96648.41;10383108;28;20537;-73
2022/10/08 03:26:41;;;;;;;15.65;5.47;;;;;;;12.43;100.00;96648.53;10400673;28;20217;-73
2022/10/08 03:31:42;;;;;;;14.30;5.72;;;;;;;12.36;100.00;96650.22;10400440;28;20240;-73
2022/10/08 03:36:42;;;;;;;15.98;6.22;;;;;;;12.47;100.00;96660.34;10400977;28;20732;-73
2022/10/08 03:41:42;;;;;;;10.15;4.97;;;;;;;12.52;100.00;96656.41;10400473;28;20615;-74
2022/10/08 03:46:43;;;;;;;15.82;6.25;;;;;;;12.54;100.00;96657.88;10398874;28;20212;-73
2022/10/08 03:51:43;;;;;;;12.10;5.55;;;;;;;12.64;100.00;96660.28;10406484;28;20235;-73
2022/10/08 03:56:43;;;;;;;13.52;6.28;;;;;;;12.74;100.00;96655.66;10407465;28;20184;-73
2022/10/08 04:01:44;;;;;;;11.45;5.88;;;;;;;12.73;100.00;96661.09;10407789;28;20552;-73
2022/10/08 04:06:44;;;;;;;14.82;6.65;;;;;;;12.69;100.00;96644.81;10414487;28;20251;-73
2022/10/08 04:11:44;;;;;;;11.85;6.75;;;;;;;12.62;100.00;96647.31;10412064;28;20288;-73
2022/10/08 04:16:46;;;;;;;14.18;7.00;;;;;;;12.46;100.00;96656.06;10413523;28;20184;-73
2022/10/08 04:21:46;;;;;;;11.63;7.00;;;;;;;12.45;100.00;96657.09;10413384;28;20188;-73
2022/10/08 04:26:47;;;;;;;21.23;7.07;;;;;;;12.37;100.00;96666.78;10413049;28;20243;-74
2022/10/08 04:31:47;;;;;;;12.60;6.82;;;;;;;12.30;100.00;96656.16;10411690;28;20249;-73
2022/10/08 04:36:47;;;;;;;9.27;6.80;;;;;;;12.05;100.00;96661.47;10412722;28;20207;-73
2022/10/08 04:41:49;;;;;;;11.13;7.50;;;;;;;12.06;100.00;96665.72;10412208;28;20684;-73
2022/10/08 04:46:49;;;;;;;12.13;7.55;;;;;;;12.12;100.00;96657.16;10394614;28;20219;-73
2022/10/08 04:51:50;;;;;;;17.33;7.60;;;;;;;12.02;100.00;96674.94;10394392;28;20246;-73
2022/10/08 04:56:50;;;;;;;13.85;7.53;;;;;;;12.36;100.00;96678.28;10412319;28;20185;-73
2022/10/08 05:01:53;;;;;;;18.23;7.97;;;;;;;12.77;100.00;96678.97;10409755;28;20310;-74
2022/10/08 05:06:53;;;;;;;12.02;7.93;;;;;;;12.66;100.00;96668.81;10412180;28;20606;-74
2022/10/08 05:11:54;;;;;;;15.63;7.45;;;;;;;12.92;100.00;96665.09;10408616;28;20200;-74
2022/10/08 05:16:54;;;;;;;14.10;8.60;;;;;;;13.07;100.00;96676.50;10409117;28;20193;-74
2022/10/08 05:21:54;;;;;;;14.95;8.75;;;;;;;13.11;100.00;96677.81;10410902;28;20555;-74
2022/10/08 05:26:55;;;;;;;15.48;8.40;;;;;;;13.14;100.00;96663.47;10392722;28;20224;-74
2022/10/08 05:32:31;;;;;;;11.68;8.63;;;;;;;13.13;100.00;96660.03;10410013;28;20243;-74
2022/10/08 05:37:32;;;;;;;14.52;8.80;;;;;;;13.14;100.00;96674.00;10404999;28;20223;-74
2022/10/08 05:42:32;;;;;;;14.10;9.45;;;;;;;13.31;100.00;96682.63;10412415;28;20196;-75
2022/10/08 05:47:32;;;;;;;20.05;9.32;;;;;;;13.25;100.00;96689.41;10424902;28;20224;-74
2022/10/08 05:52:33;;;;;;;19.45;10.30;;;;;;;13.43;100.00;96704.97;10432953;28;20563;-75
2022/10/08 05:57:33;;;;;;;14.27;8.93;;;;;;;13.36;100.00;96691.66;10427220;28;20276;-76
2022/10/08 06:02:33;;;;;;;13.90;8.35;;;;;;;13.57;100.00;96698.13;10414986;28;20207;-75
2022/10/08 06:07:34;;;;;;;15.55;9.57;;;;;;;13.56;100.00;96702.53;10415416;28;20224;-75
2022/10/08 06:12:34;;;;;;;15.80;8.80;;;;;;;13.65;100.00;96707.75;10406891;28;20258;-75
2022/10/08 06:17:34;;;;;;;15.63;9.77;;;;;;;13.55;100.00;96711.44;10407120;28;20231;-84
2022/10/08 06:22:35;;;;;;;15.35;9.27;;;;;;;13.63;100.00;96715.84;10411184;28;20254;-79
2022/10/08 06:27:35;;;;;;;14.63;8.88;;;;;;;13.83;100.00;96728.53;10426384;28;20232;-80
2022/10/08 06:32:36;;;;;;;16.17;8.93;;;;;;;13.69;100.00;96730.94;10412638;28;20205;-79
2022/10/08 06:37:36;;;;;;;21.30;8.70;;;;;;;13.63;100.00;96731.63;10410960;28;20213;-79
2022/10/08 06:42:36;;;;;;;17.08;8.23;;;;;;;13.67;100.00;96732.91;10410741;28;20199;-79
2022/10/08 06:47:37;;;;;;;18.75;9.88;;;;;;;13.56;100.00;96751.75;10413958;28;20582;-79
2022/10/08 06:52:38;;;;;;;12.23;9.18;;;;;;;13.65;100.00;96739.34;10414979;28;20203;-82
2022/10/08 06:57:38;;;;;;;15.40;9.32;;;;;;;13.69;100.00;96744.09;10417666;28;20189;-80
2022/10/08 07:02:39;;;;;;;15.73;9.77;;;;;;;13.81;100.00;96747.09;10420624;28;20230;-76
2022/10/08 07:07:39;;;;;;;14.40;9.15;;;;;;;13.82;100.00;96740.88;10391658;28;20267;-75
2022/10/08 07:12:39;;;;;;;23.95;10.43;;;;;;;13.73;100.00;96736.66;10402165;28;20224;-81
2022/10/08 07:17:40;;;;;;;18.45;9.70;;;;;;;13.78;100.00;96747.47;10412963;28;20199;-80
2022/10/08 07:22:40;;;;;;;21.35;9.43;;;;;;;14.02;100.00;96749.09;10420797;28;20196;-80
2022/10/08 07:27:41;;;;;;;17.95;8.80;;;;;;;14.16;100.00;96747.50;10452190;28;20240;-80
2022/10/08 07:32:41;;;;;;;16.25;9.07;;;;;;;13.93;100.00;96744.09;10417887;28;20180;-80
2022/10/08 07:37:41;;;;;;;16.55;9.60;;;;;;;13.98;100.00;96760.16;10413347;28;20216;-79
2022/10/08 07:42:42;;;;;;;14.45;8.52;;;;;;;14.40;100.00;96754.38;10417364;28;20196;-81
2022/10/08 07:47:42;;;;;;;13.27;8.88;;;;;;;14.49;100.00;96752.47;10411716;28;20699;-81
2022/10/08 07:52:43;;;;;;;19.80;8.68;;;;;;;14.77;100.00;96755.31;10411241;28;20192;-81
2022/10/08 07:57:43;;;;;;;12.43;8.48;;;;;;;14.46;100.00;96760.75;10410764;28;20188;-80
2022/10/08 08:02:46;;;;;;;15.05;9.98;;;;;;;14.32;100.00;96758.88;10411587;28;20193;-79
2022/10/08 08:07:47;;;;;;;18.38;9.40;;;;;;;14.14;100.00;96759.22;10410706;28;20236;-79
2022/10/08 08:12:47;;;;;;;18.38;9.07;;;;;;;14.43;100.00;96745.28;10407011;28;20196;-79
2022/10/08 08:17:47;;;;;;;10.85;8.80;;;;;;;14.27;100.00;96748.88;10416427;28;20876;-79
2022/10/08 08:22:48;;;;;;;17.27;8.52;;;;;;;14.61;100.00;96739.72;10413860;28;20220;-78
2022/10/08 08:27:54;;;;;;;18.23;10.00;;;;;;;15.05;100.00;96732.75;10417719;28;20238;-79
2022/10/08 08:32:54;;;;;;;11.45;8.10;;;;;;;16.09;100.00;96729.78;10447818;28;20185;-80
2022/10/08 08:37:55;;;;;;;14.98;8.82;;;;;;;16.47;99.01;96710.16;10418075;28;20204;-78
2022/10/08 08:42:55;;;;;;;13.48;6.97;;;;;;;16.51;92.58;96688.41;10455970;28;20210;-78
2022/10/08 08:48:13;;;;;;;13.68;8.07;;;;;;;15.90;96.17;96699.56;10456389;28;20576;-79
2022/10/08 08:53:13;;;;;;;13.90;6.72;;;;;;;17.27;90.38;96692.00;10438588;28;20222;-79
2022/10/08 08:58:41;;;;;;;12.27;7.35;;;;;;;16.14;93.86;96708.91;10455688;28;20191;-79
2022/10/08 09:03:47;;;;;;;10.50;6.50;;;;;;;14.98;100.00;96745.88;10419693;28;20189;-79
2022/10/08 09:09:06;;;;;;;15.45;6.38;;;;;;;15.62;96.76;96710.03;10418884;28;20196;-79
2022/10/08 09:14:10;;;;;;;11.80;6.78;;;;;;;15.60;97.27;96709.41;10433709;28;20191;-79
2022/10/08 09:19:11;;;;;;;10.00;6.60;;;;;;;15.24;94.26;96703.16;10455191;28;20283;-79
2022/10/08 09:24:12;;;;;;;12.82;7.13;;;;;;;15.98;90.87;96693.31;10457432;28;20675;-80
2022/10/08 09:29:31;;;;;;;11.80;6.53;;;;;;;15.77;92.73;96728.47;10469909;28;20235;-80
2022/10/08 09:34:32;;;;;;;17.60;7.38;;;;;;;15.92;94.01;96723.16;10498437;28;20195;-80
2022/10/08 09:39:37;;;;;;;10.18;6.68;;;;;;;15.52;92.11;96729.63;10456409;28;20216;-80
2022/10/08 09:44:49;;;;;;;18.45;8.05;;;;;;;15.83;97.02;96754.16;10451514;28;20687;-81
2022/10/08 09:50:01;;;;;;;12.90;7.32;;;;;;;15.15;96.82;96754.41;10423966;28;20952;-79
2022/10/08 09:55:14;;;;;;;9.73;6.80;;;;;;;15.36;98.23;96768.66;10433027;28;20283;-77
2022/10/08 10:00:30;;;;;;;10.65;6.85;;;;;;;15.18;97.04;96775.16;10433567;28;20301;-78
2022/10/08 10:05:33;;;;;;;12.82;8.10;;;;;;;14.72;99.43;96791.97;10448667;28;20692;-77
2022/10/08 10:10:37;;;;;;;14.18;6.90;;;;;;;15.23;95.05;96772.78;10432754;28;20330;-77
2022/10/08 10:16:01;;;;;;;12.73;5.90;;;;;;;15.99;91.17;96750.47;10431858;28;20216;-78
2022/10/08 10:21:05;;;;;;;10.75;5.80;;;;;;;15.93;88.06;96746.72;10449949;28;20283;-79
2022/10/08 10:26:22;;;;;;;11.77;5.53;;;;;;;16.09;89.80;96760.69;10426363;28;20216;-79
2022/10/08 10:31:26;;;;;;;7.57;4.90;;;;;;;15.59;89.77;96771.97;10443330;28;20227;-79
2022/10/08 10:36:34;;;;;;;14.38;5.40;;;;;;;16.04;88.66;96758.63;10417881;28;20660;-78
2022/10/08 10:41:41;;;;;;;14.15;6.13;;;;;;;15.95;91.14;96789.63;10431614;28;20241;-78
2022/10/08 10:46:51;;;;;;;34.08;9.55;;;;;;;16.29;88.45;96755.56;10441256;28;20261;-78
2022/10/08 10:51:52;;;;;;;17.98;5.15;;;;;;;16.10;86.68;96752.56;10429862;28;20215;-78
2022/10/08 10:57:01;;;;;;;16.77;6.03;;;;;;;16.59;85.43;96749.06;10433510;28;20216;-79
2022/10/08 11:02:28;;;;;;;7.07;3.70;;;;;;;16.51;83.37;96737.84;10441547;28;20192;-79
2022/10/08 11:07:56;;;;;;;6.82;3.85;;;;;;;17.17;82.41;96736.59;10441891;28;20223;-80
2022/10/08 11:13:24;;;;;;;8.02;4.00;;;;;;;16.46;81.96;96734.94;10458305;28;20692;-80
2022/10/08 11:18:46;;;;;;;9.88;4.10;;;;;;;16.37;81.84;96726.34;10452621;28;20205;-80
2022/10/08 11:24:08;;;;;;;10.75;4.13;;;;;;;16.27;80.43;96721.41;10382980;28;20538;-81
2022/10/08 11:29:36;;;;;;;10.05;4.22;;;;;;;15.84;83.34;96755.81;10416730;28;20246;-79
2022/10/08 11:34:36;;;;;;;9.88;4.55;;;;;;;15.61;81.17;96730.34;10398782;28;20239;-80
2022/10/08 11:40:01;;;;;;;10.52;3.78;;;;;;;16.99;79.78;96718.59;10398383;28;20235;-80
2022/10/08 11:45:13;;;;;;;9.73;3.00;;;;;;;18.23;71.77;96651.13;10398691;28;20223;-80
2022/10/08 11:50:40;;;;;;;12.98;3.47;;;;;;;16.69;75.16;96679.13;10400773;28;20286;-80
2022/10/08 11:55:50;;;;;;;10.02;3.10;;;;;;;18.10;71.90;96664.41;10434551;28;20283;-80
2022/10/08 12:00:52;;;;;;;8.88;3.38;;;;;;;16.55;76.77;96718.75;10398044;28;20219;-81
2022/10/08 12:05:57;;;;;;;10.02;3.00;;;;;;;16.31;77.19;96721.81;10397877;28;20219;-81
2022/10/08 12:11:39;;;;;;;8.98;2.95;;;;;;;16.56;73.77;96675.41;10396643;28;20250;-81
2022/10/08 12:16:48;;;;;;;7.22;2.95;;;;;;;16.24;72.09;96658.34;10429343;28;20184;-81
2022/10/08 12:21:49;;;;;;;7.85;2.72;;;;;;;15.77;74.92;96691.47;10454305;28;20194;-79
2022/10/08 12:27:28;;;;;;;5.47;2.42;;;;;;;15.81;74.61;96696.22;10412860;28;20220;-80
2022/10/08 12:32:30;;;;;;;5.82;2.63;;;;;;;14.94;77.03;96707.66;10412643;28;20205;-81
2022/10/08 12:38:05;;;;;;;8.35;2.63;;;;;;;15.90;74.39;96689.00;10395912;28;20244;-81
2022/10/08 12:43:34;;;;;;;6.60;1.80;;;;;;;15.74;70.86;96642.47;10395795;28;20242;-79
2022/10/08 12:48:50;;;;;;;4.38;2.25;;;;;;;16.31;69.94;96638.06;10412692;28;20303;-79
2022/10/08 12:53:51;;;;;;;4.43;1.48;;;;;;;16.40;68.11;96613.09;10394500;28;20207;-77
2022/10/08 12:58:54;;;;;;;4.95;1.63;;;;;;;18.58;60.45;96536.78;10451931;28;20560;-75
2022/10/08 13:04:08;;;;;;;4.40;1.27;;;;;;;19.34;55.59;96481.16;10421393;28;20188;-78
2022/10/08 13:09:17;;;;;;;4.15;1.60;;;;;;;19.53;55.76;96501.44;10456818;28;20192;-77
2022/10/08 13:14:34;;;;;;;4.35;1.40;;;;;;;16.90;63.05;96586.44;10438726;28;20563;-78
2022/10/08 13:19:37;;;;;;;4.78;1.67;;;;;;;17.37;64.62;96615.66;10455267;28;20231;-78
2022/10/08 13:24:40;;;;;;;5.47;1.38;;;;;;;16.24;66.54;96631.91;10437290;28;20282;-78
2022/10/08 13:29:41;;;;;;;4.38;1.20;;;;;;;17.73;63.56;96614.44;10421244;28;20242;-78
2022/10/08 13:34:44;;;;;;;1.73;1.10;;;;;;;17.78;63.08;96611.22;10437823;28;20903;-79
2022/10/08 13:39:59;;;;;;;3.83;1.40;;;;;;;16.94;62.92;96586.88;10441741;28;20640;-79
2022/10/08 13:45:01;;;;;;;2.83;1.40;;;;;;;16.71;65.00;96632.97;10449350;28;20223;-79
2022/10/08 13:50:01;;;;;;;7.03;1.73;;;;;;;16.23;66.50;96654.06;10488105;28;20195;-80
2022/10/08 13:55:04;;;;;;;4.47;1.23;;;;;;;15.48;67.93;96657.13;10456498;28;20229;-79
2022/10/08 14:00:05;;;;;;;1.55;1.10;;;;;;;15.82;68.86;96674.09;10435424;28;20224;-80
2022/10/08 14:05:06;;;;;;;3.70;1.15;;;;;;;15.63;69.03;96672.88;10453060;28;20314;-80
2022/10/08 14:10:06;;;;;;;1.80;1.02;;;;;;;15.81;69.54;96687.50;10452843;28;20191;-80
2022/10/08 14:15:10;;;;;;;3.00;1.23;;;;;;;15.40;71.73;96720.56;10452248;28;20196;-79
2022/10/08 14:20:11;;;;;;;2.67;1.40;;;;;;;15.10;73.55;96754.13;10434336;28;20192;-79
2022/10/08 14:25:19;;;;;;;5.65;1.40;;;;;;;14.78;73.95;96753.53;10452579;28;20219;-80
2022/10/08 14:30:20;;;;;;;6.57;1.30;;;;;;;15.30;72.08;96706.88;10410156;28;20336;-79
2022/10/08 14:35:20;;;;;;;9.00;1.75;;;;;;;15.21;71.07;96689.53;10410449;28;20204;-80
2022/10/08 14:40:21;;;;;;;2.72;1.40;;;;;;;16.93;69.46;96707.75;10410521;28;20192;-79
2022/10/08 14:45:21;;;;;;;5.20;1.27;;;;;;;17.26;66.29;96659.44;10410792;28;20234;-79
2022/10/08 14:50:22;;;;;;;7.78;1.63;;;;;;;16.34;69.81;96716.97;10412537;28;20185;-78
2022/10/08 14:55:23;;;;;;;8.52;1.67;;;;;;;16.49;71.60;96761.00;10434178;28;20274;-78
2022/10/08 15:00:23;;;;;;;8.25;1.90;;;;;;;15.33;77.16;96831.38;10450990;28;20278;-79
2022/10/08 15:05:23;;;;;;;7.32;2.20;;;;;;;14.85;80.74;96859.09;10433839;28;20285;-80
2022/10/08 15:10:24;;;;;;;8.05;2.40;;;;;;;13.95;87.30;96895.69;10451614;28;20191;-79
2022/10/08 15:15:24;;;;;;;9.10;2.30;;;;;;;13.49;91.22;96883.22;10451881;28;20600;-79
2022/10/08 15:20:25;;;;;;;5.95;2.30;;;;;;;13.31;95.95;96893.94;10433933;28;20187;-79
2022/10/08 15:26:06;;;;;;;4.68;2.08;;;;;;;13.15;99.56;96910.56;10451629;28;20215;-80
2022/10/08 15:31:10;;;;;;;6.40;2.15;;;;;;;12.82;100.00;96931.66;10390051;28;20240;-80
2022/10/08 15:36:19;;;;;;;4.25;1.67;;;;;;;12.29;100.00;96940.81;10406126;28;20258;-79
2022/10/08 15:41:19;;;;;;;4.78;1.75;;;;;;;11.89;100.00;96947.59;10409345;28;20275;-80
2022/10/08 15:46:21;;;;;;;6.28;1.80;;;;;;;11.63;100.00;96950.28;10419586;28;20274;-79
2022/10/08 15:51:22;;;;;;;4.18;1.60;;;;;;;11.58;100.00;96976.97;10435714;28;20657;-77
2022/10/08 15:56:23;;;;;;;6.25;2.10;;;;;;;11.39;100.00;97006.88;10437868;28;20188;-77
2022/10/08 16:01:25;;;;;;;2.95;1.33;;;;;;;10.86;100.00;97004.19;10434703;28;20624;-76
2022/10/08 16:06:28;;;;;;;7.25;1.90;;;;;;;10.36;100.00;97007.31;10414520;28;20302;-75
2022/10/08 16:11:31;;;;;;;4.50;2.23;;;;;;;9.93;100.00;97024.47;10412689;28;20191;-77
2022/10/08 16:16:31;;;;;;;6.40;2.40;;;;;;;9.85;100.00;97037.44;10433125;28;20207;-76
2022/10/08 16:21:33;;;;;;;5.23;2.03;;;;;;;9.84;100.00;97036.63;10414613;28;20237;-75
2022/10/08 16:26:34;;;;;;;10.10;2.47;;;;;;;9.74;100.00;97035.81;10434343;28;20243;-77
2022/10/08 16:31:36;;;;;;;7.03;2.03;;;;;;;9.63;100.00;97049.91;10425719;28;20271;-77
2022/10/08 16:36:38;;;;;;;7.70;2.53;;;;;;;9.67;100.00;97058.31;10411423;28;20270;-77
2022/10/08 16:41:39;;;;;;;6.10;1.83;;;;;;;9.58;100.00;97047.72;10412166;28;20749;-77
2022/10/08 16:46:47;;;;;;;10.90;4.07;;;;;;;9.57;100.00;97061.78;10411154;28;20224;-77
2022/10/08 16:51:48;;;;;;;8.47;3.03;;;;;;;9.45;100.00;97060.28;10415900;28;20763;-78
2022/10/08 16:56:48;;;;;;;8.20;3.20;;;;;;;9.41;100.00;97064.16;10411989;28;20196;-77
2022/10/08 17:01:51;;;;;;;9.43;2.83;;;;;;;9.50;100.00;97081.59;10411754;28;20188;-76
2022/10/08 17:06:51;;;;;;;6.93;3.07;;;;;;;9.47;100.00;97081.88;10412006;28;20224;-76
2022/10/08 17:11:51;;;;;;;5.93;3.10;;;;;;;9.38;100.00;97101.84;10394326;28;20189;-78
2022/10/08 17:16:52;;;;;;;8.43;2.87;;;;;;;9.22;100.00;97119.91;10411217;28;20188;-77
2022/10/08 17:21:52;;;;;;;4.80;2.90;;;;;;;9.04;100.00;97133.63;10417179;28;20567;-77
2022/10/08 17:26:54;;;;;;;4.43;3.17;;;;;;;8.97;100.00;97136.94;10423038;28;20235;-78
2022/10/08 17:31:54;;;;;;;9.60;3.67;;;;;;;8.75;100.00;97152.69;10423204;28;20247;-78
2022/10/08 17:36:54;;;;;;;6.87;3.80;;;;;;;8.79;100.00;97153.28;10422835;28;20211;-78
2022/10/08 17:41:55;;;;;;;8.87;3.47;;;;;;;8.80;100.00;97160.13;10430486;28;20204;-78
2022/10/08 17:46:56;;;;;;;10.40;3.97;;;;;;;8.84;100.00;97164.13;10431827;28;20266;-78
2022/10/08 17:51:56;;;;;;;12.07;4.60;;;;;;;8.87;100.00;97160.44;10429945;28;20211;-77
2022/10/08 17:56:57;;;;;;;13.60;4.30;;;;;;;8.85;100.00;97164.97;10454777;28;20219;-77
2022/10/08 18:01:58;;;;;;;10.40;4.20;;;;;;;8.83;100.00;97174.72;10453461;28;20193;-78
2022/10/08 18:06:58;;;;;;;8.63;4.33;;;;;;;8.86;100.00;97175.28;10418177;28;20216;-77
2022/10/08 18:11:58;;;;;;;16.13;7.27;;;;;;;8.87;100.00;97171.72;10421178;28;20187;-76
2022/10/08 18:16:59;;;;;;;11.80;4.73;;;;;;;8.84;100.00;97166.75;10420632;28;20221;-77
2022/10/08 18:21:59;;;;;;;7.43;4.57;;;;;;;8.89;100.00;97175.00;10429458;28;20196;-77
2022/10/08 18:27:00;;;;;;;11.03;4.80;;;;;;;8.86;100.00;97177.88;10429314;28;20212;-76
2022/10/08 18:32:00;;;;;;;9.13;5.93;;;;;;;9.01;100.00;97188.78;10415031;28;20278;-77
2022/10/08 18:37:00;;;;;;;11.73;6.33;;;;;;;9.12;100.00;97189.63;10408527;28;20213;-77
2022/10/08 18:42:01;;;;;;;9.53;5.30;;;;;;;9.25;100.00;97187.59;10408043;28;20193;-77
2022/10/08 18:47:01;;;;;;;8.77;5.20;;;;;;;9.21;100.00;97207.94;10407348;28;20220;-78
2022/10/08 18:52:01;;;;;;;7.70;4.60;;;;;;;9.19;100.00;97209.88;10407226;28;20199;-76
2022/10/08 18:57:02;;;;;;;8.07;3.50;;;;;;;9.19;100.00;97209.88;10408350;28;20207;-77
2022/10/08 19:02:02;;;;;;;6.40;3.30;;;;;;;9.05;100.00;97216.31;10409531;28;20283;-77
2022/10/08 19:07:04;;;;;;;5.97;3.17;;;;;;;8.96;100.00;97224.13;10411822;28;20216;-78
2022/10/08 19:12:06;;;;;;;6.97;3.53;;;;;;;8.77;100.00;97232.72;10410505;28;20699;-78
2022/10/08 19:17:07;;;;;;;6.40;3.13;;;;;;;8.60;100.00;97234.19;10391713;28;20193;-77
2022/10/08 19:22:07;;;;;;;7.63;3.20;;;;;;;8.52;100.00;97248.72;10416405;28;20196;-77
2022/10/08 19:27:07;;;;;;;7.90;3.20;;;;;;;8.58;100.00;97255.19;10417336;28;20212;-78
2022/10/08 19:32:08;;;;;;;7.03;3.20;;;;;;;8.74;100.00;97262.53;10400131;28;20244;-78
2022/10/08 19:37:09;;;;;;;7.00;3.20;;;;;;;8.86;100.00;97258.88;10417080;28;20216;-78
2022/10/08 19:42:09;;;;;;;5.43;3.60;;;;;;;8.86;100.00;97261.50;10416255;28;20196;-79
2022/10/08 19:47:09;;;;;;;6.97;3.00;;;;;;;8.83;100.00;97266.97;10416698;28;20220;-77
2022/10/08 19:52:10;;;;;;;8.77;3.67;;;;;;;8.77;100.00;97266.69;10416570;28;20193;-77
2022/10/08 19:57:10;;;;;;;5.87;3.30;;;;;;;8.78;100.00;97284.84;10416654;28;20185;-77
2022/10/08 20:02:11;;;;;;;5.70;3.27;;;;;;;8.62;100.00;97287.09;10398251;28;20193;-79
2022/10/08 20:07:11;;;;;;;7.47;4.03;;;;;;;8.40;100.00;97300.13;10415870;28;20220;-77
2022/10/08 20:12:11;;;;;;;6.13;3.57;;;;;;;8.33;100.00;97312.06;10415923;28;20192;-77
2022/10/08 20:17:12;;;;;;;8.37;3.90;;;;;;;8.21;100.00;97313.91;10415348;28;20560;-77
2022/10/08 20:22:12;;;;;;;9.03;4.63;;;;;;;7.97;100.00;97313.31;10422621;28;20272;-78
2022/10/08 20:27:13;;;;;;;9.17;4.37;;;;;;;7.98;100.00;97320.19;10437116;28;20760;-78
2022/10/08 20:32:13;;;;;;;7.23;4.07;;;;;;;7.98;100.00;97321.00;10439766;28;20339;-77
2022/10/08 20:37:13;;;;;;;7.70;4.47;;;;;;;7.90;100.00;97336.47;10423353;28;20212;-77
2022/10/08 20:42:14;;;;;;;6.23;4.17;;;;;;;7.93;100.00;97335.38;10414478;28;20188;-78
2022/10/08 20:47:14;;;;;;;7.77;4.60;;;;;;;7.90;100.00;97335.63;10414826;28;20593;-77
2022/10/08 20:52:15;;;;;;;11.57;4.77;;;;;;;7.74;100.00;97347.28;10414911;28;20196;-77
2022/10/08 20:57:15;;;;;;;6.57;4.00;;;;;;;7.68;100.00;97347.78;10414458;28;20767;-78
2022/10/08 21:02:15;;;;;;;4.87;3.87;;;;;;;7.47;100.00;97350.31;10413957;28;20540;-78
2022/10/08 21:07:16;;;;;;;10.83;4.37;;;;;;;7.03;100.00;97349.41;10413243;28;20224;-78
2022/10/08 21:12:16;;;;;;;9.27;4.30;;;;;;;6.94;100.00;97358.78;10413539;28;20193;-78
2022/10/08 21:17:16;;;;;;;7.83;4.87;;;;;;;6.90;100.00;97363.38;10414099;28;20265;-78
2022/10/08 21:22:17;;;;;;;9.40;4.60;;;;;;;6.86;100.00;97372.38;10413099;28;20201;-78
2022/10/08 21:27:17;;;;;;;12.27;5.67;;;;;;;6.81;100.00;97378.88;10414393;28;20215;-78
2022/10/08 21:32:17;;;;;;;8.87;4.90;;;;;;;6.76;100.00;97389.66;10414287;28;20192;-79
2022/10/08 21:37:18;;;;;;;8.23;4.63;;;;;;;6.67;100.00;97392.94;10414349;28;20204;-78
2022/10/08 21:42:18;;;;;;;6.97;4.90;;;;;;;6.70;100.00;97405.72;10413042;28;20203;-78
2022/10/08 21:47:19;;;;;;;11.67;5.40;;;;;;;6.24;100.00;97400.38;10413808;28;20225;-78
2022/10/08 21:52:19;;;;;;;10.90;5.77;;;;;;;6.34;100.00;97397.94;10414146;28;20268;-77
2022/10/08 21:57:19;;;;;;;12.10;5.27;;;;;;;6.34;100.00;97395.34;10415505;28;20247;-78
2022/10/08 22:02:20;;;;;;;8.57;4.73;;;;;;;6.16;100.00;97402.72;10440937;28;20216;-78
2022/10/08 22:07:20;;;;;;;14.80;5.50;;;;;;;5.96;100.00;97411.94;10451144;28;20247;-77
2022/10/08 22:12:20;;;;;;;10.40;5.47;;;;;;;6.03;100.00;97415.78;10413543;28;20188;-78
2022/10/08 22:17:21;;;;;;;9.90;5.17;;;;;;;5.96;100.00;97419.72;10411617;28;20247;-78
2022/10/08 22:22:21;;;;;;;5.57;4.37;;;;;;;5.90;100.00;97423.59;10410496;28;20196;-77
2022/10/08 22:27:22;;;;;;;15.97;4.83;;;;;;;5.62;100.00;97427.34;10411213;28;20622;-78
2022/10/08 22:32:22;;;;;;;9.77;4.50;;;;;;;5.63;100.00;97434.16;10410544;28;20201;-78
2022/10/08 22:37:22;;;;;;;12.43;4.60;;;;;;;5.59;100.00;97437.94;10410713;28;20300;-78
2022/10/08 22:42:23;;;;;;;6.97;4.50;;;;;;;5.50;100.00;97433.38;10410140;28;20184;-78
2022/10/08 22:47:23;;;;;;;8.40;4.87;;;;;;;5.35;100.00;97436.09;10410271;28;20216;-77
2022/10/08 22:52:23;;;;;;;10.93;4.43;;;;;;;5.30;100.00;97437.38;10409925;28;20189;-78
2022/10/08 22:57:24;;;;;;;8.43;4.60;;;;;;;5.12;100.00;97442.88;10409599;28;20187;-77
2022/10/08 23:02:24;;;;;;;8.17;4.63;;;;;;;5.17;100.00;97445.97;10409703;28;20197;-77
2022/10/08 23:07:24;;;;;;;9.20;4.47;;;;;;;5.20;100.00;97451.91;10409612;28;20216;-77
2022/10/08 23:12:25;;;;;;;7.90;4.33;;;;;;;5.17;100.00;97463.34;10409976;28;20207;-77
2022/10/08 23:17:25;;;;;;;5.67;4.63;;;;;;;5.02;100.00;97464.38;10409656;28;20206;-77
2022/10/08 23:22:27;;;;;;;9.23;5.37;;;;;;;5.11;100.00;97474.97;10409647;28;20679;-78